sensor_id;sensor_type;location;lat;lon;timestamp;temperature;humidity
38500;DHT22;24269;51.894;4.622;2022-12-07T00:00:55;5.20;99.90
38500;DHT22;24269;51.894;4.622;2022-12-07T00:03:21;5.20;99.90
38500;DHT22;24269;51.894;4.622;2022-12-07T00:05:46;5.10;99.90
38500;DHT22;24269;51.894;4.622;2022-12-07T00:08:12;5.10;99.90
38500;DHT22;24269;51.894;4.622;2022-12-07T00:10:38;5.10;99.90
38500;DHT22;24269;51.894;4.622;2022-12-07T00:13:03;5.10;99.90
38500;DHT22;24269;51.894;4.622;2022-12-07T00:15:29;5.20;99.90
38500;DHT22;24269;51.894;4.622;2022-12-07T00:17:54;5.20;99.90
38500;DHT22;24269;51.894;4.622;2022-12-07T00:20:20;5.20;99.90
38500;DHT22;24269;51.894;4.622;2022-12-07T00:22:45;5.30;99.90
38500;DHT22;24269;51.894;4.622;2022-12-07T00:25:11;5.30;99.90
38500;DHT22;24269;51.894;4.622;2022-12-07T00:27:36;5.20;99.90
38500;DHT22;24269;51.894;4.622;2022-12-07T00:30:02;5.20;99.90
38500;DHT22;24269;51.894;4.622;2022-12-07T00:32:28;5.10;99.90
38500;DHT22;24269;51.894;4.622;2022-12-07T00:34:53;5.00;99.90
38500;DHT22;24269;51.894;4.622;2022-12-07T00:37:19;5.00;99.90
38500;DHT22;24269;51.894;4.622;2022-12-07T00:39:45;4.90;99.90
38500;DHT22;24269;51.894;4.622;2022-12-07T00:42:11;4.80;99.90
38500;DHT22;24269;51.894;4.622;2022-12-07T00:44:37;4.70;99.90
38500;DHT22;24269;51.894;4.622;2022-12-07T00:47:02;4.60;99.90
38500;DHT22;24269;51.894;4.622;2022-12-07T00:49:28;4.60;99.90
38500;DHT22;24269;51.894;4.622;2022-12-07T00:51:54;4.50;99.90
38500;DHT22;24269;51.894;4.622;2022-12-07T00:54:19;4.40;99.90
38500;DHT22;24269;51.894;4.622;2022-12-07T00:56:45;4.40;99.90
38500;DHT22;24269;51.894;4.622;2022-12-07T00:59:12;4.40;99.90
38500;DHT22;24269;51.894;4.622;2022-12-07T01:01:39;4.40;99.90
38500;DHT22;24269;51.894;4.622;2022-12-07T01:04:05;4.40;99.90
38500;DHT22;24269;51.894;4.622;2022-12-07T01:06:31;4.40;99.90
38500;DHT22;24269;51.894;4.622;2022-12-07T01:08:57;4.30;99.90
38500;DHT22;24269;51.894;4.622;2022-12-07T01:11:25;4.30;99.90
38500;DHT22;24269;51.894;4.622;2022-12-07T01:13:53;4.20;99.90
38500;DHT22;24269;51.894;4.622;2022-12-07T01:16:19;4.20;99.90
38500;DHT22;24269;51.894;4.622;2022-12-07T01:18:48;4.30;99.90
38500;DHT22;24269;51.894;4.622;2022-12-07T01:21:19;4.40;99.90
38500;DHT22;24269;51.894;4.622;2022-12-07T01:23:46;4.40;99.90
38500;DHT22;24269;51.894;4.622;2022-12-07T01:26:14;4.40;99.90
38500;DHT22;24269;51.894;4.622;2022-12-07T01:28:40;4.50;99.90
38500;DHT22;24269;51.894;4.622;2022-12-07T01:31:12;4.50;99.90
38500;DHT22;24269;51.894;4.622;2022-12-07T01:33:40;4.50;99.90
38500;DHT22;24269;51.894;4.622;2022-12-07T01:36:25;4.40;99.90
38500;DHT22;24269;51.894;4.622;2022-12-07T01:38:55;4.40;99.90
38500;DHT22;24269;51.894;4.622;2022-12-07T01:41:22;4.30;99.90
38500;DHT22;24269;51.894;4.622;2022-12-07T01:44:11;4.20;99.90
38500;DHT22;24269;51.894;4.622;2022-12-07T01:46:38;4.20;99.90
38500;DHT22;24269;51.894;4.622;2022-12-07T01:49:06;4.10;99.90
38500;DHT22;24269;51.894;4.622;2022-12-07T01:51:33;4.00;99.90
38500;DHT22;24269;51.894;4.622;2022-12-07T01:53:59;3.90;99.90
38500;DHT22;24269;51.894;4.622;2022-12-07T01:56:27;3.90;99.90
38500;DHT22;24269;51.894;4.622;2022-12-07T01:58:53;3.80;99.90
38500;DHT22;24269;51.894;4.622;2022-12-07T02:01:20;3.80;99.90
38500;DHT22;24269;51.894;4.622;2022-12-07T02:03:46;3.70;99.90
38500;DHT22;24269;51.894;4.622;2022-12-07T02:06:15;3.70;99.90
38500;DHT22;24269;51.894;4.622;2022-12-07T02:08:42;3.60;99.90
38500;DHT22;24269;51.894;4.622;2022-12-07T02:11:08;3.60;99.90
38500;DHT22;24269;51.894;4.622;2022-12-07T02:13:36;3.60;99.90
38500;DHT22;24269;51.894;4.622;2022-12-07T02:19:35;3.80;99.90
38500;DHT22;24269;51.894;4.622;2022-12-07T02:22:18;3.80;99.90
38500;DHT22;24269;51.894;4.622;2022-12-07T02:25:32;3.90;99.90
38500;DHT22;24269;51.894;4.622;2022-12-07T02:28:04;4.00;99.90
38500;DHT22;24269;51.894;4.622;2022-12-07T02:30:32;3.90;99.90
38500;DHT22;24269;51.894;4.622;2022-12-07T02:33:14;3.90;99.90
38500;DHT22;24269;51.894;4.622;2022-12-07T02:36:00;3.80;99.90
38500;DHT22;24269;51.894;4.622;2022-12-07T02:41:29;3.70;99.90
38500;DHT22;24269;51.894;4.622;2022-12-07T02:44:09;3.60;99.90
38500;DHT22;24269;51.894;4.622;2022-12-07T02:46:57;3.60;99.90
38500;DHT22;24269;51.894;4.622;2022-12-07T02:49:26;3.50;99.90
38500;DHT22;24269;51.894;4.622;2022-12-07T02:51:52;3.50;99.90
38500;DHT22;24269;51.894;4.622;2022-12-07T02:54:20;3.60;99.90
38500;DHT22;24269;51.894;4.622;2022-12-07T03:00:00;3.70;99.90
38500;DHT22;24269;51.894;4.622;2022-12-07T03:02:50;3.80;99.90
38500;DHT22;24269;51.894;4.622;2022-12-07T03:08:15;3.80;99.90
38500;DHT22;24269;51.894;4.622;2022-12-07T03:11:04;3.80;99.90
38500;DHT22;24269;51.894;4.622;2022-12-07T03:16:35;3.80;99.90
38500;DHT22;24269;51.894;4.622;2022-12-07T03:19:15;3.70;99.90
38500;DHT22;24269;51.894;4.622;2022-12-07T03:22:02;3.70;99.90
38500;DHT22;24269;51.894;4.622;2022-12-07T03:24:33;3.70;99.90
38500;DHT22;24269;51.894;4.622;2022-12-07T03:27:05;3.70;99.90
38500;DHT22;24269;51.894;4.622;2022-12-07T03:29:34;3.80;99.90
38500;DHT22;24269;51.894;4.622;2022-12-07T03:32:13;3.80;99.90
38500;DHT22;24269;51.894;4.622;2022-12-07T03:35:07;3.90;99.90
38500;DHT22;24269;51.894;4.622;2022-12-07T03:37:41;4.00;99.90
38500;DHT22;24269;51.894;4.622;2022-12-07T03:42:48;4.10;99.90
38500;DHT22;24269;51.894;4.622;2022-12-07T03:45:15;4.10;99.90
38500;DHT22;24269;51.894;4.622;2022-12-07T03:48:03;4.10;99.90
38500;DHT22;24269;51.894;4.622;2022-12-07T03:50:53;4.10;99.90
38500;DHT22;24269;51.894;4.622;2022-12-07T03:53:46;4.00;99.90
38500;DHT22;24269;51.894;4.622;2022-12-07T03:56:14;4.10;99.90
38500;DHT22;24269;51.894;4.622;2022-12-07T03:58:40;4.10;99.90
38500;DHT22;24269;51.894;4.622;2022-12-07T04:01:06;4.00;99.90
38500;DHT22;24269;51.894;4.622;2022-12-07T04:03:32;3.90;99.90
38500;DHT22;24269;51.894;4.622;2022-12-07T04:05:58;3.90;99.90
38500;DHT22;24269;51.894;4.622;2022-12-07T04:08:24;3.90;99.90
38500;DHT22;24269;51.894;4.622;2022-12-07T04:10:50;3.90;99.90
38500;DHT22;24269;51.894;4.622;2022-12-07T04:13:16;3.90;99.90
38500;DHT22;24269;51.894;4.622;2022-12-07T04:15:41;3.90;99.90
38500;DHT22;24269;51.894;4.622;2022-12-07T04:18:07;3.90;99.90
38500;DHT22;24269;51.894;4.622;2022-12-07T04:20:32;3.80;99.90
38500;DHT22;24269;51.894;4.622;2022-12-07T04:22:58;3.80;99.90
38500;DHT22;24269;51.894;4.622;2022-12-07T04:25:23;3.70;99.90
38500;DHT22;24269;51.894;4.622;2022-12-07T04:27:49;3.80;99.90
38500;DHT22;24269;51.894;4.622;2022-12-07T04:30:15;3.80;99.90
38500;DHT22;24269;51.894;4.622;2022-12-07T04:32:40;3.80;99.90
38500;DHT22;24269;51.894;4.622;2022-12-07T04:35:07;3.90;99.90
38500;DHT22;24269;51.894;4.622;2022-12-07T04:37:32;3.90;99.90
38500;DHT22;24269;51.894;4.622;2022-12-07T04:39:58;3.90;99.90
38500;DHT22;24269;51.894;4.622;2022-12-07T04:42:23;3.90;99.90
38500;DHT22;24269;51.894;4.622;2022-12-07T04:44:49;3.90;99.90
38500;DHT22;24269;51.894;4.622;2022-12-07T04:47:16;3.90;99.90
38500;DHT22;24269;51.894;4.622;2022-12-07T04:49:41;4.00;99.90
38500;DHT22;24269;51.894;4.622;2022-12-07T04:52:07;3.90;99.90
38500;DHT22;24269;51.894;4.622;2022-12-07T04:54:33;3.90;99.90
38500;DHT22;24269;51.894;4.622;2022-12-07T04:56:59;3.80;99.90
38500;DHT22;24269;51.894;4.622;2022-12-07T04:59:25;3.80;99.90
38500;DHT22;24269;51.894;4.622;2022-12-07T05:01:50;3.80;99.90
38500;DHT22;24269;51.894;4.622;2022-12-07T05:04:16;3.70;99.90
38500;DHT22;24269;51.894;4.622;2022-12-07T05:06:43;3.70;99.90
38500;DHT22;24269;51.894;4.622;2022-12-07T05:09:09;3.70;99.90
38500;DHT22;24269;51.894;4.622;2022-12-07T05:11:35;3.70;99.90
38500;DHT22;24269;51.894;4.622;2022-12-07T05:14:05;3.70;99.90
38500;DHT22;24269;51.894;4.622;2022-12-07T05:16:31;3.60;99.90
38500;DHT22;24269;51.894;4.622;2022-12-07T05:18:57;3.60;99.90
38500;DHT22;24269;51.894;4.622;2022-12-07T05:21:23;3.50;99.90
38500;DHT22;24269;51.894;4.622;2022-12-07T05:23:49;3.50;99.90
38500;DHT22;24269;51.894;4.622;2022-12-07T05:26:14;3.40;99.90
38500;DHT22;24269;51.894;4.622;2022-12-07T05:28:40;3.40;99.90
38500;DHT22;24269;51.894;4.622;2022-12-07T05:31:06;3.40;99.90
38500;DHT22;24269;51.894;4.622;2022-12-07T05:33:31;3.30;99.90
38500;DHT22;24269;51.894;4.622;2022-12-07T05:35:57;3.20;99.90
38500;DHT22;24269;51.894;4.622;2022-12-07T05:38:23;3.20;99.90
38500;DHT22;24269;51.894;4.622;2022-12-07T05:40:50;3.20;99.90
38500;DHT22;24269;51.894;4.622;2022-12-07T05:43:15;3.10;99.90
38500;DHT22;24269;51.894;4.622;2022-12-07T05:45:41;3.10;99.90
38500;DHT22;24269;51.894;4.622;2022-12-07T05:48:07;3.10;99.90
38500;DHT22;24269;51.894;4.622;2022-12-07T05:50:32;3.10;99.90
38500;DHT22;24269;51.894;4.622;2022-12-07T05:52:58;3.10;99.90
38500;DHT22;24269;51.894;4.622;2022-12-07T05:55:23;3.10;99.90
38500;DHT22;24269;51.894;4.622;2022-12-07T05:57:49;3.20;99.90
38500;DHT22;24269;51.894;4.622;2022-12-07T06:00:34;3.20;99.90
38500;DHT22;24269;51.894;4.622;2022-12-07T06:02:59;3.20;99.90
38500;DHT22;24269;51.894;4.622;2022-12-07T06:05:25;3.20;99.90
38500;DHT22;24269;51.894;4.622;2022-12-07T06:07:50;3.20;99.90
38500;DHT22;24269;51.894;4.622;2022-12-07T06:10:16;3.20;99.90
38500;DHT22;24269;51.894;4.622;2022-12-07T06:12:42;3.20;99.90
38500;DHT22;24269;51.894;4.622;2022-12-07T06:15:09;3.30;99.90
38500;DHT22;24269;51.894;4.622;2022-12-07T06:17:36;3.30;99.90
38500;DHT22;24269;51.894;4.622;2022-12-07T06:20:02;3.30;99.90
38500;DHT22;24269;51.894;4.622;2022-12-07T06:22:28;3.40;99.90
38500;DHT22;24269;51.894;4.622;2022-12-07T06:24:53;3.30;99.90
38500;DHT22;24269;51.894;4.622;2022-12-07T06:27:19;3.30;99.90
38500;DHT22;24269;51.894;4.622;2022-12-07T06:29:45;3.20;99.90
38500;DHT22;24269;51.894;4.622;2022-12-07T06:32:10;3.10;99.90
38500;DHT22;24269;51.894;4.622;2022-12-07T06:34:37;3.10;99.90
38500;DHT22;24269;51.894;4.622;2022-12-07T06:37:03;3.00;99.90
38500;DHT22;24269;51.894;4.622;2022-12-07T06:39:29;2.90;99.90
38500;DHT22;24269;51.894;4.622;2022-12-07T06:41:55;2.90;99.90
38500;DHT22;24269;51.894;4.622;2022-12-07T06:44:22;2.80;99.90
38500;DHT22;24269;51.894;4.622;2022-12-07T06:46:48;2.80;99.90
38500;DHT22;24269;51.894;4.622;2022-12-07T06:49:14;2.70;99.90
38500;DHT22;24269;51.894;4.622;2022-12-07T06:51:40;2.70;99.90
38500;DHT22;24269;51.894;4.622;2022-12-07T06:54:09;2.80;99.90
38500;DHT22;24269;51.894;4.622;2022-12-07T06:56:35;2.90;99.90
38500;DHT22;24269;51.894;4.622;2022-12-07T06:59:01;3.00;99.90
38500;DHT22;24269;51.894;4.622;2022-12-07T07:01:27;3.00;99.90
38500;DHT22;24269;51.894;4.622;2022-12-07T07:03:53;3.00;99.90
38500;DHT22;24269;51.894;4.622;2022-12-07T07:06:19;3.00;99.90
38500;DHT22;24269;51.894;4.622;2022-12-07T07:08:44;3.10;99.90
38500;DHT22;24269;51.894;4.622;2022-12-07T07:11:10;3.10;99.90
38500;DHT22;24269;51.894;4.622;2022-12-07T07:13:36;3.10;99.90
38500;DHT22;24269;51.894;4.622;2022-12-07T07:16:02;3.10;99.90
38500;DHT22;24269;51.894;4.622;2022-12-07T07:18:28;3.10;99.90
38500;DHT22;24269;51.894;4.622;2022-12-07T07:20:54;3.10;99.90
38500;DHT22;24269;51.894;4.622;2022-12-07T07:23:20;3.10;99.90
38500;DHT22;24269;51.894;4.622;2022-12-07T07:25:46;3.20;99.90
38500;DHT22;24269;51.894;4.622;2022-12-07T07:28:13;3.20;99.90
38500;DHT22;24269;51.894;4.622;2022-12-07T07:30:38;3.20;99.90
38500;DHT22;24269;51.894;4.622;2022-12-07T07:33:05;3.20;99.90
38500;DHT22;24269;51.894;4.622;2022-12-07T07:35:32;3.10;99.90
38500;DHT22;24269;51.894;4.622;2022-12-07T07:37:58;3.10;99.90
38500;DHT22;24269;51.894;4.622;2022-12-07T07:40:24;3.00;99.90
38500;DHT22;24269;51.894;4.622;2022-12-07T07:42:51;3.00;99.90
38500;DHT22;24269;51.894;4.622;2022-12-07T07:45:18;2.90;99.90
38500;DHT22;24269;51.894;4.622;2022-12-07T07:47:44;2.90;99.90
38500;DHT22;24269;51.894;4.622;2022-12-07T07:50:10;2.90;99.90
38500;DHT22;24269;51.894;4.622;2022-12-07T07:52:36;2.90;99.90
38500;DHT22;24269;51.894;4.622;2022-12-07T07:55:02;2.90;99.90
38500;DHT22;24269;51.894;4.622;2022-12-07T07:57:28;2.90;99.90
38500;DHT22;24269;51.894;4.622;2022-12-07T07:59:54;2.90;99.90
38500;DHT22;24269;51.894;4.622;2022-12-07T08:02:20;2.90;99.90
38500;DHT22;24269;51.894;4.622;2022-12-07T08:04:47;3.00;99.90
38500;DHT22;24269;51.894;4.622;2022-12-07T08:07:13;3.10;99.90
38500;DHT22;24269;51.894;4.622;2022-12-07T08:09:39;3.10;99.90
38500;DHT22;24269;51.894;4.622;2022-12-07T08:12:06;3.20;99.90
38500;DHT22;24269;51.894;4.622;2022-12-07T08:14:32;3.20;99.90
38500;DHT22;24269;51.894;4.622;2022-12-07T08:16:58;3.20;99.90
38500;DHT22;24269;51.894;4.622;2022-12-07T08:19:24;3.20;99.90
38500;DHT22;24269;51.894;4.622;2022-12-07T08:21:49;3.20;99.90
38500;DHT22;24269;51.894;4.622;2022-12-07T08:24:15;3.30;99.90
38500;DHT22;24269;51.894;4.622;2022-12-07T08:26:41;3.30;99.90
38500;DHT22;24269;51.894;4.622;2022-12-07T08:29:07;3.30;99.90
38500;DHT22;24269;51.894;4.622;2022-12-07T08:31:33;3.30;99.90
38500;DHT22;24269;51.894;4.622;2022-12-07T08:33:58;3.40;99.90
38500;DHT22;24269;51.894;4.622;2022-12-07T08:36:24;3.50;99.90
38500;DHT22;24269;51.894;4.622;2022-12-07T08:38:50;3.60;99.90
38500;DHT22;24269;51.894;4.622;2022-12-07T08:41:16;3.60;99.90
38500;DHT22;24269;51.894;4.622;2022-12-07T08:43:42;3.70;99.90
38500;DHT22;24269;51.894;4.622;2022-12-07T08:46:18;3.70;99.90
38500;DHT22;24269;51.894;4.622;2022-12-07T08:48:50;3.80;99.90
38500;DHT22;24269;51.894;4.622;2022-12-07T08:51:18;3.90;99.90
38500;DHT22;24269;51.894;4.622;2022-12-07T08:53:44;4.00;99.90
38500;DHT22;24269;51.894;4.622;2022-12-07T08:56:10;4.00;99.90
38500;DHT22;24269;51.894;4.622;2022-12-07T08:58:37;4.10;99.90
38500;DHT22;24269;51.894;4.622;2022-12-07T09:01:04;4.10;99.90
38500;DHT22;24269;51.894;4.622;2022-12-07T09:03:30;4.10;99.90
38500;DHT22;24269;51.894;4.622;2022-12-07T09:05:57;4.10;99.90
38500;DHT22;24269;51.894;4.622;2022-12-07T09:08:26;4.10;99.90
38500;DHT22;24269;51.894;4.622;2022-12-07T09:10:54;4.20;99.90
38500;DHT22;24269;51.894;4.622;2022-12-07T09:13:20;4.30;99.90
38500;DHT22;24269;51.894;4.622;2022-12-07T09:15:45;4.40;99.90
38500;DHT22;24269;51.894;4.622;2022-12-07T09:18:11;4.40;99.90
38500;DHT22;24269;51.894;4.622;2022-12-07T09:20:36;4.50;99.90
38500;DHT22;24269;51.894;4.622;2022-12-07T09:23:02;4.50;99.90
38500;DHT22;24269;51.894;4.622;2022-12-07T09:25:30;4.60;99.90
38500;DHT22;24269;51.894;4.622;2022-12-07T09:27:57;4.70;99.90
38500;DHT22;24269;51.894;4.622;2022-12-07T09:30:23;4.70;99.90
38500;DHT22;24269;51.894;4.622;2022-12-07T09:32:49;4.90;99.90
38500;DHT22;24269;51.894;4.622;2022-12-07T09:35:15;5.00;99.90
38500;DHT22;24269;51.894;4.622;2022-12-07T09:37:40;5.10;99.90
38500;DHT22;24269;51.894;4.622;2022-12-07T09:40:06;5.30;99.90
38500;DHT22;24269;51.894;4.622;2022-12-07T09:42:41;5.50;99.90
38500;DHT22;24269;51.894;4.622;2022-12-07T09:45:24;5.50;99.90
38500;DHT22;24269;51.894;4.622;2022-12-07T09:47:52;5.50;99.90
38500;DHT22;24269;51.894;4.622;2022-12-07T09:50:25;5.60;99.90
38500;DHT22;24269;51.894;4.622;2022-12-07T09:52:52;5.60;99.90
38500;DHT22;24269;51.894;4.622;2022-12-07T09:55:27;5.60;99.90
38500;DHT22;24269;51.894;4.622;2022-12-07T09:57:54;5.60;99.90
38500;DHT22;24269;51.894;4.622;2022-12-07T10:00:21;5.70;99.90
38500;DHT22;24269;51.894;4.622;2022-12-07T10:02:56;5.60;99.90
38500;DHT22;24269;51.894;4.622;2022-12-07T10:05:28;5.70;99.90
38500;DHT22;24269;51.894;4.622;2022-12-07T10:07:55;5.60;99.90
38500;DHT22;24269;51.894;4.622;2022-12-07T10:10:32;5.60;99.90
38500;DHT22;24269;51.894;4.622;2022-12-07T10:13:03;5.60;99.90
38500;DHT22;24269;51.894;4.622;2022-12-07T10:26:33;6.60;99.90
38500;DHT22;24269;51.894;4.622;2022-12-07T10:29:04;7.00;99.90
38500;DHT22;24269;51.894;4.622;2022-12-07T10:31:39;7.30;99.90
38500;DHT22;24269;51.894;4.622;2022-12-07T10:36:50;7.80;99.90
38500;DHT22;24269;51.894;4.622;2022-12-07T10:39:18;8.20;99.90
38500;DHT22;24269;51.894;4.622;2022-12-07T10:44:28;9.00;99.90
38500;DHT22;24269;51.894;4.622;2022-12-07T10:49:42;8.60;99.90
38500;DHT22;24269;51.894;4.622;2022-12-07T10:52:30;8.40;99.90
38500;DHT22;24269;51.894;4.622;2022-12-07T11:04:08;8.60;99.90
38500;DHT22;24269;51.894;4.622;2022-12-07T11:21:05;7.60;99.90
38500;DHT22;24269;51.894;4.622;2022-12-07T11:26:21;7.80;99.90
38500;DHT22;24269;51.894;4.622;2022-12-07T11:36:57;8.10;99.90
38500;DHT22;24269;51.894;4.622;2022-12-07T11:39:28;8.20;99.90
38500;DHT22;24269;51.894;4.622;2022-12-07T11:42:05;8.30;99.90
38500;DHT22;24269;51.894;4.622;2022-12-07T11:49:56;9.10;99.90
38500;DHT22;24269;51.894;4.622;2022-12-07T11:52:27;9.30;99.90
38500;DHT22;24269;51.894;4.622;2022-12-07T11:54:57;9.20;99.90
38500;DHT22;24269;51.894;4.622;2022-12-07T11:57:32;9.20;99.90
38500;DHT22;24269;51.894;4.622;2022-12-07T12:00:08;9.10;99.90
38500;DHT22;24269;51.894;4.622;2022-12-07T12:02:43;8.90;99.90
38500;DHT22;24269;51.894;4.622;2022-12-07T12:05:16;8.80;99.90
38500;DHT22;24269;51.894;4.622;2022-12-07T12:07:44;8.60;99.90
38500;DHT22;24269;51.894;4.622;2022-12-07T12:13:07;7.90;99.90
38500;DHT22;24269;51.894;4.622;2022-12-07T12:21:17;7.00;99.90
38500;DHT22;24269;51.894;4.622;2022-12-07T12:23:46;6.80;99.90
38500;DHT22;24269;51.894;4.622;2022-12-07T12:26:31;6.70;99.90
38500;DHT22;24269;51.894;4.622;2022-12-07T12:29:06;6.60;99.90
38500;DHT22;24269;51.894;4.622;2022-12-07T12:31:39;6.60;99.90
38500;DHT22;24269;51.894;4.622;2022-12-07T12:36:56;6.60;99.90
38500;DHT22;24269;51.894;4.622;2022-12-07T12:39:22;6.70;99.90
38500;DHT22;24269;51.894;4.622;2022-12-07T12:41:55;6.80;99.90
38500;DHT22;24269;51.894;4.622;2022-12-07T12:51:52;7.20;99.90
38500;DHT22;24269;51.894;4.622;2022-12-07T13:10:39;7.60;99.90
38500;DHT22;24269;51.894;4.622;2022-12-07T13:15:41;7.40;99.90
38500;DHT22;24269;51.894;4.622;2022-12-07T13:34:26;7.10;99.90
38500;DHT22;24269;51.894;4.622;2022-12-07T13:36:51;7.10;99.90
38500;DHT22;24269;51.894;4.622;2022-12-07T13:39:25;7.10;99.90
38500;DHT22;24269;51.894;4.622;2022-12-07T13:41:53;7.10;99.90
38500;DHT22;24269;51.894;4.622;2022-12-07T13:44:21;7.10;99.90
38500;DHT22;24269;51.894;4.622;2022-12-07T13:49:24;7.10;99.90
38500;DHT22;24269;51.894;4.622;2022-12-07T13:51:50;7.00;99.90
38500;DHT22;24269;51.894;4.622;2022-12-07T13:54:18;7.00;99.90
38500;DHT22;24269;51.894;4.622;2022-12-07T13:56:43;6.90;99.90
38500;DHT22;24269;51.894;4.622;2022-12-07T13:59:27;6.80;99.90
38500;DHT22;24269;51.894;4.622;2022-12-07T14:01:53;6.80;99.90
38500;DHT22;24269;51.894;4.622;2022-12-07T14:04:36;6.70;99.90
38500;DHT22;24269;51.894;4.622;2022-12-07T14:10:04;6.60;99.90
38500;DHT22;24269;51.894;4.622;2022-12-07T14:12:32;6.60;99.90
38500;DHT22;24269;51.894;4.622;2022-12-07T14:15:02;6.60;99.90
38500;DHT22;24269;51.894;4.622;2022-12-07T14:17:28;6.70;99.90
38500;DHT22;24269;51.894;4.622;2022-12-07T14:19:58;6.70;99.90
38500;DHT22;24269;51.894;4.622;2022-12-07T14:22:33;6.70;99.90
38500;DHT22;24269;51.894;4.622;2022-12-07T14:27:37;6.80;99.90
38500;DHT22;24269;51.894;4.622;2022-12-07T14:30:04;6.80;99.90
38500;DHT22;24269;51.894;4.622;2022-12-07T14:32:35;6.80;99.90
38500;DHT22;24269;51.894;4.622;2022-12-07T14:37:29;6.80;99.90
38500;DHT22;24269;51.894;4.622;2022-12-07T14:39:56;6.70;99.90
38500;DHT22;24269;51.894;4.622;2022-12-07T14:42:24;6.70;99.90
38500;DHT22;24269;51.894;4.622;2022-12-07T14:44:50;6.70;99.90
38500;DHT22;24269;51.894;4.622;2022-12-07T14:47:16;6.70;99.90
38500;DHT22;24269;51.894;4.622;2022-12-07T14:49:41;6.60;99.90
38500;DHT22;24269;51.894;4.622;2022-12-07T14:52:15;6.60;99.90
38500;DHT22;24269;51.894;4.622;2022-12-07T14:54:42;6.50;99.90
38500;DHT22;24269;51.894;4.622;2022-12-07T14:57:09;6.50;99.90
38500;DHT22;24269;51.894;4.622;2022-12-07T14:59:36;6.50;99.90
38500;DHT22;24269;51.894;4.622;2022-12-07T15:02:01;6.40;99.90
38500;DHT22;24269;51.894;4.622;2022-12-07T15:04:28;6.40;99.90
38500;DHT22;24269;51.894;4.622;2022-12-07T15:07:02;6.30;99.90
38500;DHT22;24269;51.894;4.622;2022-12-07T15:09:28;6.30;99.90
38500;DHT22;24269;51.894;4.622;2022-12-07T15:11:54;6.30;99.90
38500;DHT22;24269;51.894;4.622;2022-12-07T15:14:20;6.30;99.90
38500;DHT22;24269;51.894;4.622;2022-12-07T15:16:45;6.30;99.90
38500;DHT22;24269;51.894;4.622;2022-12-07T15:19:15;6.20;99.90
38500;DHT22;24269;51.894;4.622;2022-12-07T15:21:43;6.20;99.90
38500;DHT22;24269;51.894;4.622;2022-12-07T15:24:10;6.30;99.90
38500;DHT22;24269;51.894;4.622;2022-12-07T15:26:37;6.30;99.90
38500;DHT22;24269;51.894;4.622;2022-12-07T15:29:04;6.30;99.90
38500;DHT22;24269;51.894;4.622;2022-12-07T15:31:29;6.30;99.90
38500;DHT22;24269;51.894;4.622;2022-12-07T15:33:55;6.20;99.90
38500;DHT22;24269;51.894;4.622;2022-12-07T15:36:23;6.10;99.90
38500;DHT22;24269;51.894;4.622;2022-12-07T15:38:50;6.10;99.90
38500;DHT22;24269;51.894;4.622;2022-12-07T15:41:15;6.00;99.90
38500;DHT22;24269;51.894;4.622;2022-12-07T15:43:41;6.00;99.90
38500;DHT22;24269;51.894;4.622;2022-12-07T15:46:36;6.00;99.90
38500;DHT22;24269;51.894;4.622;2022-12-07T15:49:03;5.90;99.90
38500;DHT22;24269;51.894;4.622;2022-12-07T15:51:29;5.90;99.90
38500;DHT22;24269;51.894;4.622;2022-12-07T15:53:55;5.80;99.90
38500;DHT22;24269;51.894;4.622;2022-12-07T15:56:22;5.80;99.90
38500;DHT22;24269;51.894;4.622;2022-12-07T15:58:48;5.70;99.90
38500;DHT22;24269;51.894;4.622;2022-12-07T16:01:15;5.70;99.90
38500;DHT22;24269;51.894;4.622;2022-12-07T16:03:41;5.70;99.90
38500;DHT22;24269;51.894;4.622;2022-12-07T16:06:07;5.70;99.90
38500;DHT22;24269;51.894;4.622;2022-12-07T16:08:33;5.70;99.90
38500;DHT22;24269;51.894;4.622;2022-12-07T16:10:59;5.70;99.90
38500;DHT22;24269;51.894;4.622;2022-12-07T16:13:25;5.70;99.90
38500;DHT22;24269;51.894;4.622;2022-12-07T16:15:50;5.70;99.90
38500;DHT22;24269;51.894;4.622;2022-12-07T16:18:16;5.60;99.90
38500;DHT22;24269;51.894;4.622;2022-12-07T16:20:41;5.70;99.90
38500;DHT22;24269;51.894;4.622;2022-12-07T16:23:08;5.70;99.90
38500;DHT22;24269;51.894;4.622;2022-12-07T16:25:34;5.70;99.90
38500;DHT22;24269;51.894;4.622;2022-12-07T16:27:59;5.70;99.90
38500;DHT22;24269;51.894;4.622;2022-12-07T16:30:25;5.70;99.90
38500;DHT22;24269;51.894;4.622;2022-12-07T16:32:51;5.70;99.90
38500;DHT22;24269;51.894;4.622;2022-12-07T16:35:17;5.60;99.90
38500;DHT22;24269;51.894;4.622;2022-12-07T16:37:43;5.60;99.90
38500;DHT22;24269;51.894;4.622;2022-12-07T16:40:09;5.60;99.90
38500;DHT22;24269;51.894;4.622;2022-12-07T16:42:35;5.60;99.90
38500;DHT22;24269;51.894;4.622;2022-12-07T16:45:01;5.60;99.90
38500;DHT22;24269;51.894;4.622;2022-12-07T16:47:27;5.60;99.90
38500;DHT22;24269;51.894;4.622;2022-12-07T16:49:53;5.60;99.90
38500;DHT22;24269;51.894;4.622;2022-12-07T16:52:19;5.60;99.90
38500;DHT22;24269;51.894;4.622;2022-12-07T16:54:46;5.60;99.90
38500;DHT22;24269;51.894;4.622;2022-12-07T16:57:12;5.60;99.90
38500;DHT22;24269;51.894;4.622;2022-12-07T16:59:37;5.60;99.90
38500;DHT22;24269;51.894;4.622;2022-12-07T17:02:03;5.60;99.90
38500;DHT22;24269;51.894;4.622;2022-12-07T17:04:29;5.60;99.90
38500;DHT22;24269;51.894;4.622;2022-12-07T17:06:55;5.50;99.90
38500;DHT22;24269;51.894;4.622;2022-12-07T17:09:20;5.50;99.90
38500;DHT22;24269;51.894;4.622;2022-12-07T17:11:46;5.50;99.90
38500;DHT22;24269;51.894;4.622;2022-12-07T17:14:12;5.50;99.90
38500;DHT22;24269;51.894;4.622;2022-12-07T17:16:56;5.50;99.90
38500;DHT22;24269;51.894;4.622;2022-12-07T17:19:22;5.50;99.90
38500;DHT22;24269;51.894;4.622;2022-12-07T17:21:48;5.50;99.90
38500;DHT22;24269;51.894;4.622;2022-12-07T17:24:15;5.50;99.90
38500;DHT22;24269;51.894;4.622;2022-12-07T17:26:43;5.50;99.90
38500;DHT22;24269;51.894;4.622;2022-12-07T17:29:11;5.40;99.90
38500;DHT22;24269;51.894;4.622;2022-12-07T17:31:37;5.40;99.90
38500;DHT22;24269;51.894;4.622;2022-12-07T17:34:03;5.40;99.90
38500;DHT22;24269;51.894;4.622;2022-12-07T17:36:31;5.40;99.90
38500;DHT22;24269;51.894;4.622;2022-12-07T17:38:57;5.40;99.90
38500;DHT22;24269;51.894;4.622;2022-12-07T17:41:27;5.50;99.90
38500;DHT22;24269;51.894;4.622;2022-12-07T17:44:14;5.40;99.90
38500;DHT22;24269;51.894;4.622;2022-12-07T17:46:40;5.50;99.90
38500;DHT22;24269;51.894;4.622;2022-12-07T17:49:06;5.60;99.90
38500;DHT22;24269;51.894;4.622;2022-12-07T17:51:32;5.60;99.90
38500;DHT22;24269;51.894;4.622;2022-12-07T17:54:33;5.60;99.90
38500;DHT22;24269;51.894;4.622;2022-12-07T17:56:59;5.60;99.90
38500;DHT22;24269;51.894;4.622;2022-12-07T17:59:25;5.50;99.90
38500;DHT22;24269;51.894;4.622;2022-12-07T18:01:51;5.50;99.90
38500;DHT22;24269;51.894;4.622;2022-12-07T18:04:16;5.40;99.90
38500;DHT22;24269;51.894;4.622;2022-12-07T18:06:42;5.40;99.90
38500;DHT22;24269;51.894;4.622;2022-12-07T18:09:08;5.40;99.90
38500;DHT22;24269;51.894;4.622;2022-12-07T18:11:35;5.40;99.90
38500;DHT22;24269;51.894;4.622;2022-12-07T18:14:01;5.40;99.90